sensor_id;sensor_type;location;lat;lon;timestamp;pressure;altitude;pressure_sealevel;temperature;humidity
61086;BME280;46967;48.876;2.136;2023-05-22T00:00:13;101458.97;;;42.44;14.07
61086;BME280;46967;48.876;2.136;2023-05-22T00:02:39;101462.09;;;42.36;13.99
61086;BME280;46967;48.876;2.136;2023-05-22T00:05:09;101454.66;;;42.31;14.02
61086;BME280;46967;48.876;2.136;2023-05-22T00:07:35;101448.97;;;42.33;14.00
61086;BME280;46967;48.876;2.136;2023-05-22T00:10:00;101453.94;;;42.36;14.03
61086;BME280;46967;48.876;2.136;2023-05-22T00:12:26;101456.41;;;42.38;14.02
61086;BME280;46967;48.876;2.136;2023-05-22T00:14:51;101450.56;;;42.17;14.20
61086;BME280;46967;48.876;2.136;2023-05-22T00:17:17;101447.59;;;42.18;14.10
61086;BME280;46967;48.876;2.136;2023-05-22T00:19:42;101450.09;;;42.08;14.10
61086;BME280;46967;48.876;2.136;2023-05-22T00:22:08;101452.25;;;41.94;14.34
61086;BME280;46967;48.876;2.136;2023-05-22T00:24:33;101438.50;;;42.01;14.14
61086;BME280;46967;48.876;2.136;2023-05-22T00:26:59;101445.38;;;42.04;14.02
61086;BME280;46967;48.876;2.136;2023-05-22T00:29:24;101443.38;;;41.87;14.19
61086;BME280;46967;48.876;2.136;2023-05-22T00:31:49;101439.44;;;41.95;14.13
61086;BME280;46967;48.876;2.136;2023-05-22T00:34:15;101440.16;;;41.90;14.04
61086;BME280;46967;48.876;2.136;2023-05-22T00:36:40;101447.41;;;41.85;14.12
61086;BME280;46967;48.876;2.136;2023-05-22T00:39:06;101450.00;;;41.91;14.08
61086;BME280;46967;48.876;2.136;2023-05-22T00:41:31;101452.00;;;41.96;14.03
61086;BME280;46967;48.876;2.136;2023-05-22T00:44:00;101448.56;;;42.00;14.05
61086;BME280;46967;48.876;2.136;2023-05-22T00:46:25;101450.56;;;42.05;14.06
61086;BME280;46967;48.876;2.136;2023-05-22T00:48:51;101458.19;;;42.32;13.93
61086;BME280;46967;48.876;2.136;2023-05-22T00:51:20;101453.63;;;42.21;14.16
61086;BME280;46967;48.876;2.136;2023-05-22T00:53:46;101449.38;;;42.01;13.75
61086;BME280;46967;48.876;2.136;2023-05-22T00:56:12;101440.22;;;41.78;14.16
61086;BME280;46967;48.876;2.136;2023-05-22T00:58:39;101443.13;;;41.89;14.23
61086;BME280;46967;48.876;2.136;2023-05-22T01:01:05;101451.78;;;41.97;14.25
61086;BME280;46967;48.876;2.136;2023-05-22T01:03:35;101438.66;;;41.82;14.15
61086;BME280;46967;48.876;2.136;2023-05-22T01:06:01;101441.97;;;41.73;14.24
61086;BME280;46967;48.876;2.136;2023-05-22T01:08:27;101434.66;;;41.73;14.25
61086;BME280;46967;48.876;2.136;2023-05-22T01:11:14;101441.50;;;41.64;14.31
61086;BME280;46967;48.876;2.136;2023-05-22T01:16:44;101440.41;;;41.65;14.46
61086;BME280;46967;48.876;2.136;2023-05-22T01:30:52;101443.59;;;41.26;14.52
61086;BME280;46967;48.876;2.136;2023-05-22T01:33:23;101447.44;;;41.37;14.17
61086;BME280;46967;48.876;2.136;2023-05-22T01:35:50;101435.22;;;41.16;14.25
61086;BME280;46967;48.876;2.136;2023-05-22T01:38:19;101432.69;;;40.91;14.65
61086;BME280;46967;48.876;2.136;2023-05-22T01:40:46;101429.25;;;41.07;14.18
61086;BME280;46967;48.876;2.136;2023-05-22T01:43:13;101435.31;;;40.67;14.60
61086;BME280;46967;48.876;2.136;2023-05-22T01:45:39;101432.59;;;40.67;14.45
61086;BME280;46967;48.876;2.136;2023-05-22T01:48:05;101434.34;;;40.62;14.67
61086;BME280;46967;48.876;2.136;2023-05-22T01:50:30;101426.38;;;40.90;14.46
61086;BME280;46967;48.876;2.136;2023-05-22T01:53:14;101419.19;;;41.08;14.59
61086;BME280;46967;48.876;2.136;2023-05-22T01:59:00;101423.50;;;40.73;14.22
61086;BME280;46967;48.876;2.136;2023-05-22T02:01:27;101419.19;;;41.08;14.41
61086;BME280;46967;48.876;2.136;2023-05-22T02:03:56;101424.66;;;40.66;14.45
61086;BME280;46967;48.876;2.136;2023-05-22T02:06:24;101422.19;;;40.15;14.76
61086;BME280;46967;48.876;2.136;2023-05-22T02:08:51;101425.47;;;40.66;14.26
61086;BME280;46967;48.876;2.136;2023-05-22T02:11:18;101427.78;;;40.81;14.54
61086;BME280;46967;48.876;2.136;2023-05-22T02:13:46;101415.94;;;40.75;14.34
61086;BME280;46967;48.876;2.136;2023-05-22T02:16:11;101422.06;;;40.71;14.43
61086;BME280;46967;48.876;2.136;2023-05-22T02:18:38;101427.63;;;40.76;14.43
61086;BME280;46967;48.876;2.136;2023-05-22T02:21:05;101430.56;;;40.63;14.31
61086;BME280;46967;48.876;2.136;2023-05-22T02:23:33;101429.75;;;40.62;14.13
61086;BME280;46967;48.876;2.136;2023-05-22T02:25:58;101437.41;;;40.65;14.44
61086;BME280;46967;48.876;2.136;2023-05-22T02:28:24;101425.06;;;40.81;14.21
61086;BME280;46967;48.876;2.136;2023-05-22T02:30:49;101428.28;;;40.90;14.12
61086;BME280;46967;48.876;2.136;2023-05-22T02:33:14;101422.88;;;40.71;14.38
61086;BME280;46967;48.876;2.136;2023-05-22T02:35:42;101421.56;;;40.92;14.15
61086;BME280;46967;48.876;2.136;2023-05-22T02:38:08;101427.25;;;41.03;14.18
61086;BME280;46967;48.876;2.136;2023-05-22T02:40:33;101416.47;;;40.96;14.26
61086;BME280;46967;48.876;2.136;2023-05-22T02:42:58;101415.44;;;40.97;14.16
61086;BME280;46967;48.876;2.136;2023-05-22T02:45:24;101421.44;;;41.11;14.28
61086;BME280;46967;48.876;2.136;2023-05-22T02:47:49;101419.81;;;41.10;14.16
61086;BME280;46967;48.876;2.136;2023-05-22T02:50:14;101413.44;;;41.16;13.97
61086;BME280;46967;48.876;2.136;2023-05-22T02:52:40;101420.75;;;41.04;14.18
61086;BME280;46967;48.876;2.136;2023-05-22T02:55:06;101408.09;;;40.98;14.12
61086;BME280;46967;48.876;2.136;2023-05-22T02:57:32;101411.19;;;40.83;14.40
61086;BME280;46967;48.876;2.136;2023-05-22T02:59:57;101418.09;;;40.85;14.29
61086;BME280;46967;48.876;2.136;2023-05-22T03:02:24;101414.47;;;40.91;14.28
61086;BME280;46967;48.876;2.136;2023-05-22T03:04:50;101418.97;;;41.09;14.35
61086;BME280;46967;48.876;2.136;2023-05-22T03:07:15;101420.75;;;41.16;14.21
61086;BME280;46967;48.876;2.136;2023-05-22T03:09:41;101418.03;;;41.16;14.28
61086;BME280;46967;48.876;2.136;2023-05-22T03:12:06;101421.09;;;41.07;13.96
61086;BME280;46967;48.876;2.136;2023-05-22T03:14:32;101419.09;;;41.03;14.33
61086;BME280;46967;48.876;2.136;2023-05-22T03:16:57;101426.44;;;41.14;14.30
61086;BME280;46967;48.876;2.136;2023-05-22T03:19:23;101423.59;;;40.97;14.45
61086;BME280;46967;48.876;2.136;2023-05-22T03:21:48;101424.28;;;40.92;14.34
61086;BME280;46967;48.876;2.136;2023-05-22T03:24:14;101421.25;;;40.82;14.30
61086;BME280;46967;48.876;2.136;2023-05-22T03:26:39;101426.34;;;40.79;14.26
61086;BME280;46967;48.876;2.136;2023-05-22T03:29:06;101424.56;;;40.72;14.54
61086;BME280;46967;48.876;2.136;2023-05-22T03:31:32;101428.53;;;40.58;14.51
61086;BME280;46967;48.876;2.136;2023-05-22T03:33:58;101417.22;;;40.73;14.23
61086;BME280;46967;48.876;2.136;2023-05-22T03:36:23;101422.13;;;40.52;14.46
61086;BME280;46967;48.876;2.136;2023-05-22T03:38:49;101415.94;;;40.75;14.38
61086;BME280;46967;48.876;2.136;2023-05-22T03:41:16;101419.72;;;40.74;14.27
61086;BME280;46967;48.876;2.136;2023-05-22T03:43:41;101423.19;;;40.51;14.22
61086;BME280;46967;48.876;2.136;2023-05-22T03:46:06;101427.25;;;40.61;14.38
61086;BME280;46967;48.876;2.136;2023-05-22T03:48:32;101418.31;;;40.42;14.66
61086;BME280;46967;48.876;2.136;2023-05-22T03:50:58;101423.06;;;40.28;14.80
61086;BME280;46967;48.876;2.136;2023-05-22T03:53:23;101417.75;;;40.51;14.49
61086;BME280;46967;48.876;2.136;2023-05-22T03:55:49;101423.44;;;40.50;14.63
61086;BME280;46967;48.876;2.136;2023-05-22T03:58:14;101426.97;;;40.32;14.75
61086;BME280;46967;48.876;2.136;2023-05-22T04:00:39;101421.03;;;40.23;14.84
61086;BME280;46967;48.876;2.136;2023-05-22T04:03:06;101427.38;;;40.35;14.67
61086;BME280;46967;48.876;2.136;2023-05-22T04:05:37;101415.38;;;40.43;14.83
61086;BME280;46967;48.876;2.136;2023-05-22T04:08:02;101417.41;;;40.29;14.56
61086;BME280;46967;48.876;2.136;2023-05-22T04:10:28;101425.44;;;40.24;15.01
61086;BME280;46967;48.876;2.136;2023-05-22T04:12:53;101424.88;;;40.34;14.57
61086;BME280;46967;48.876;2.136;2023-05-22T04:15:18;101424.91;;;40.15;14.68
61086;BME280;46967;48.876;2.136;2023-05-22T04:17:46;101426.56;;;40.16;15.12
61086;BME280;46967;48.876;2.136;2023-05-22T04:20:11;101425.88;;;40.21;14.81
61086;BME280;46967;48.876;2.136;2023-05-22T04:22:37;101432.56;;;40.37;14.75
61086;BME280;46967;48.876;2.136;2023-05-22T04:25:02;101429.56;;;40.45;14.63
61086;BME280;46967;48.876;2.136;2023-05-22T04:27:28;101435.66;;;40.59;14.40
61086;BME280;46967;48.876;2.136;2023-05-22T04:29:54;101436.78;;;40.51;14.75
61086;BME280;46967;48.876;2.136;2023-05-22T04:32:19;101439.41;;;40.58;14.67
61086;BME280;46967;48.876;2.136;2023-05-22T04:34:48;101440.13;;;40.65;14.31
61086;BME280;46967;48.876;2.136;2023-05-22T04:37:19;101443.59;;;40.72;14.44
61086;BME280;46967;48.876;2.136;2023-05-22T04:39:45;101445.78;;;40.64;14.64
61086;BME280;46967;48.876;2.136;2023-05-22T04:42:12;101439.19;;;40.60;14.53
61086;BME280;46967;48.876;2.136;2023-05-22T04:44:39;101452.66;;;40.54;14.45
61086;BME280;46967;48.876;2.136;2023-05-22T04:47:04;101446.19;;;40.67;14.48
61086;BME280;46967;48.876;2.136;2023-05-22T04:49:31;101442.09;;;40.28;14.76
61086;BME280;46967;48.876;2.136;2023-05-22T04:51:57;101450.63;;;40.50;14.86
61086;BME280;46967;48.876;2.136;2023-05-22T04:54:23;101452.25;;;40.51;14.66
61086;BME280;46967;48.876;2.136;2023-05-22T04:56:49;101454.56;;;40.96;14.33
61086;BME280;46967;48.876;2.136;2023-05-22T04:59:15;101466.16;;;40.91;14.21
61086;BME280;46967;48.876;2.136;2023-05-22T05:01:41;101465.34;;;41.03;14.18
61086;BME280;46967;48.876;2.136;2023-05-22T05:04:10;101473.78;;;41.13;14.37
61086;BME280;46967;48.876;2.136;2023-05-22T05:06:35;101468.69;;;41.17;14.28
61086;BME280;46967;48.876;2.136;2023-05-22T05:09:02;101459.69;;;41.16;14.34
61086;BME280;46967;48.876;2.136;2023-05-22T05:11:28;101465.03;;;41.23;14.07
61086;BME280;46967;48.876;2.136;2023-05-22T05:13:54;101473.56;;;41.38;14.23
61086;BME280;46967;48.876;2.136;2023-05-22T05:16:19;101458.38;;;41.07;14.29
61086;BME280;46967;48.876;2.136;2023-05-22T05:18:44;101462.97;;;41.06;14.58
61086;BME280;46967;48.876;2.136;2023-05-22T05:21:10;101459.78;;;41.09;14.42
61086;BME280;46967;48.876;2.136;2023-05-22T05:23:35;101456.72;;;41.06;14.41
61086;BME280;46967;48.876;2.136;2023-05-22T05:26:00;101463.44;;;40.91;14.39
61086;BME280;46967;48.876;2.136;2023-05-22T05:28:26;101462.50;;;41.09;14.45
61086;BME280;46967;48.876;2.136;2023-05-22T05:30:51;101465.59;;;41.25;14.27
61086;BME280;46967;48.876;2.136;2023-05-22T05:33:16;101469.78;;;41.39;14.31
61086;BME280;46967;48.876;2.136;2023-05-22T05:35:43;101470.59;;;40.86;14.50
61086;BME280;46967;48.876;2.136;2023-05-22T05:38:09;101463.31;;;40.98;14.16
61086;BME280;46967;48.876;2.136;2023-05-22T05:40:34;101466.78;;;41.17;14.30
61086;BME280;46967;48.876;2.136;2023-05-22T05:43:00;101469.16;;;41.25;14.39
61086;BME280;46967;48.876;2.136;2023-05-22T05:45:25;101459.66;;;41.04;14.40
61086;BME280;46967;48.876;2.136;2023-05-22T05:47:50;101466.97;;;40.92;14.32
61086;BME280;46967;48.876;2.136;2023-05-22T05:50:16;101462.63;;;41.03;14.53
61086;BME280;46967;48.876;2.136;2023-05-22T05:52:41;101461.16;;;40.88;14.75
61086;BME280;46967;48.876;2.136;2023-05-22T05:55:07;101461.75;;;40.90;14.34
61086;BME280;46967;48.876;2.136;2023-05-22T05:57:33;101458.97;;;41.09;14.46
61086;BME280;46967;48.876;2.136;2023-05-22T05:59:58;101455.19;;;41.22;14.29
61086;BME280;46967;48.876;2.136;2023-05-22T06:02:23;101462.25;;;40.20;14.93
61086;BME280;46967;48.876;2.136;2023-05-22T06:04:48;101455.31;;;40.24;15.40
61086;BME280;46967;48.876;2.136;2023-05-22T06:07:14;101449.25;;;41.01;14.54
61086;BME280;46967;48.876;2.136;2023-05-22T06:09:39;101455.81;;;40.82;14.70
61086;BME280;46967;48.876;2.136;2023-05-22T06:12:05;101454.25;;;40.74;14.95
61086;BME280;46967;48.876;2.136;2023-05-22T06:14:30;101445.03;;;40.26;15.46
61086;BME280;46967;48.876;2.136;2023-05-22T06:16:56;101444.47;;;39.62;15.52
61086;BME280;46967;48.876;2.136;2023-05-22T06:19:21;101444.34;;;40.31;15.25
61086;BME280;46967;48.876;2.136;2023-05-22T06:21:46;101447.91;;;39.94;15.31
61086;BME280;46967;48.876;2.136;2023-05-22T06:24:12;101461.72;;;40.11;15.13
61086;BME280;46967;48.876;2.136;2023-05-22T06:26:37;101465.34;;;40.24;15.28
61086;BME280;46967;48.876;2.136;2023-05-22T06:29:03;101462.25;;;40.01;15.35
61086;BME280;46967;48.876;2.136;2023-05-22T06:31:29;101463.34;;;40.00;15.42
61086;BME280;46967;48.876;2.136;2023-05-22T06:33:56;101472.38;;;40.13;15.48
61086;BME280;46967;48.876;2.136;2023-05-22T06:36:21;101465.09;;;40.62;15.08
61086;BME280;46967;48.876;2.136;2023-05-22T06:38:47;101473.88;;;40.76;15.15
61086;BME280;46967;48.876;2.136;2023-05-22T06:41:13;101472.13;;;40.33;14.97
61086;BME280;46967;48.876;2.136;2023-05-22T06:43:38;101479.81;;;40.36;15.37
61086;BME280;46967;48.876;2.136;2023-05-22T06:46:04;101477.09;;;40.36;14.96
61086;BME280;46967;48.876;2.136;2023-05-22T06:48:34;101478.38;;;40.82;14.93
61086;BME280;46967;48.876;2.136;2023-05-22T06:51:00;101472.09;;;41.12;14.72
61086;BME280;46967;48.876;2.136;2023-05-22T06:53:25;101477.63;;;40.45;15.07
61086;BME280;46967;48.876;2.136;2023-05-22T06:55:51;101480.44;;;40.56;15.25
61086;BME280;46967;48.876;2.136;2023-05-22T06:58:16;101484.34;;;40.61;14.90
61086;BME280;46967;48.876;2.136;2023-05-22T07:00:42;101483.81;;;41.13;14.78
61086;BME280;46967;48.876;2.136;2023-05-22T07:03:07;101474.50;;;40.78;14.73
61086;BME280;46967;48.876;2.136;2023-05-22T07:05:32;101476.78;;;41.47;14.69
61086;BME280;46967;48.876;2.136;2023-05-22T07:07:58;101482.59;;;41.39;14.69
61086;BME280;46967;48.876;2.136;2023-05-22T07:10:23;101485.91;;;41.76;14.60
61086;BME280;46967;48.876;2.136;2023-05-22T07:12:51;101488.38;;;41.42;14.66
61086;BME280;46967;48.876;2.136;2023-05-22T07:15:17;101485.56;;;41.73;14.37
61086;BME280;46967;48.876;2.136;2023-05-22T07:17:42;101485.66;;;41.00;15.08
61086;BME280;46967;48.876;2.136;2023-05-22T07:20:08;101490.28;;;41.00;15.16
61086;BME280;46967;48.876;2.136;2023-05-22T07:22:36;101499.38;;;41.47;14.46
61086;BME280;46967;48.876;2.136;2023-05-22T07:25:01;101499.03;;;41.79;14.32
61086;BME280;46967;48.876;2.136;2023-05-22T07:27:26;101498.56;;;41.94;14.41
61086;BME280;46967;48.876;2.136;2023-05-22T07:29:52;101493.81;;;41.66;14.31
61086;BME280;46967;48.876;2.136;2023-05-22T07:32:17;101505.28;;;41.33;14.83
61086;BME280;46967;48.876;2.136;2023-05-22T07:34:42;101503.66;;;42.03;14.46
61086;BME280;46967;48.876;2.136;2023-05-22T07:37:11;101495.13;;;42.23;14.05
61086;BME280;46967;48.876;2.136;2023-05-22T07:39:38;101504.09;;;42.23;14.15
61086;BME280;46967;48.876;2.136;2023-05-22T07:42:03;101500.72;;;41.92;14.44
61086;BME280;46967;48.876;2.136;2023-05-22T07:44:29;101505.88;;;42.17;14.09
61086;BME280;46967;48.876;2.136;2023-05-22T07:46:54;101515.97;;;42.17;14.25
61086;BME280;46967;48.876;2.136;2023-05-22T07:49:20;101513.81;;;42.19;13.91
61086;BME280;46967;48.876;2.136;2023-05-22T07:51:47;101520.72;;;41.98;14.38
61086;BME280;46967;48.876;2.136;2023-05-22T07:54:14;101514.94;;;42.47;14.44
61086;BME280;46967;48.876;2.136;2023-05-22T07:56:40;101512.06;;;43.28;13.54
61086;BME280;46967;48.876;2.136;2023-05-22T07:59:06;101508.81;;;43.43;13.39
61086;BME280;46967;48.876;2.136;2023-05-22T08:01:32;101507.72;;;43.44;13.58
61086;BME280;46967;48.876;2.136;2023-05-22T08:03:57;101515.81;;;42.24;14.21
61086;BME280;46967;48.876;2.136;2023-05-22T08:06:22;101505.06;;;42.86;13.65
61086;BME280;46967;48.876;2.136;2023-05-22T08:08:49;101507.94;;;43.09;13.58
61086;BME280;46967;48.876;2.136;2023-05-22T08:11:17;101504.34;;;42.91;13.71
61086;BME280;46967;48.876;2.136;2023-05-22T08:13:42;101498.16;;;42.26;14.32
61086;BME280;46967;48.876;2.136;2023-05-22T08:16:07;101515.81;;;42.93;13.75
61086;BME280;46967;48.876;2.136;2023-05-22T08:18:34;101507.97;;;42.39;14.14
61086;BME280;46967;48.876;2.136;2023-05-22T08:20:59;101508.84;;;43.14;13.84
61086;BME280;46967;48.876;2.136;2023-05-22T08:23:25;101518.53;;;43.22;13.39
61086;BME280;46967;48.876;2.136;2023-05-22T08:25:50;101508.78;;;43.26;13.86
61086;BME280;46967;48.876;2.136;2023-05-22T08:28:16;101513.50;;;43.31;13.59
61086;BME280;46967;48.876;2.136;2023-05-22T08:30:41;101513.13;;;43.27;13.90
61086;BME280;46967;48.876;2.136;2023-05-22T08:33:06;101510.34;;;43.56;13.42
61086;BME280;46967;48.876;2.136;2023-05-22T08:35:31;101512.91;;;43.63;13.68
61086;BME280;46967;48.876;2.136;2023-05-22T08:37:57;101517.75;;;43.10;14.10
61086;BME280;46967;48.876;2.136;2023-05-22T08:40:22;101508.44;;;43.73;13.51
61086;BME280;46967;48.876;2.136;2023-05-22T08:42:52;101519.44;;;43.61;13.24
61086;BME280;46967;48.876;2.136;2023-05-22T08:45:19;101518.50;;;43.73;13.39
61086;BME280;46967;48.876;2.136;2023-05-22T08:47:46;101510.84;;;44.31;12.71
61086;BME280;46967;48.876;2.136;2023-05-22T08:50:16;101527.00;;;44.32;13.17
61086;BME280;46967;48.876;2.136;2023-05-22T08:52:46;101516.78;;;44.72;12.96
61086;BME280;46967;48.876;2.136;2023-05-22T08:55:14;101517.25;;;44.42;13.12
61086;BME280;46967;48.876;2.136;2023-05-22T08:57:41;101519.72;;;44.93;12.82
61086;BME280;46967;48.876;2.136;2023-05-22T09:00:07;101521.56;;;45.14;12.81
61086;BME280;46967;48.876;2.136;2023-05-22T09:02:32;101523.53;;;45.51;12.32
61086;BME280;46967;48.876;2.136;2023-05-22T09:04:58;101526.22;;;45.46;12.54
61086;BME280;46967;48.876;2.136;2023-05-22T09:07:26;101524.72;;;45.33;12.81
61086;BME280;46967;48.876;2.136;2023-05-22T09:09:52;101530.28;;;45.38;12.71
61086;BME280;46967;48.876;2.136;2023-05-22T09:12:17;101524.97;;;45.64;12.56
61086;BME280;46967;48.876;2.136;2023-05-22T09:14:43;101528.50;;;45.60;12.41
61086;BME280;46967;48.876;2.136;2023-05-22T09:17:13;101527.78;;;46.27;12.27
61086;BME280;46967;48.876;2.136;2023-05-22T09:19:44;101519.72;;;46.00;12.22
61086;BME280;46967;48.876;2.136;2023-05-22T09:22:10;101527.75;;;46.17;12.17
61086;BME280;46967;48.876;2.136;2023-05-22T09:24:43;101530.81;;;46.36;12.14
61086;BME280;46967;48.876;2.136;2023-05-22T09:27:10;101532.81;;;45.88;12.33
61086;BME280;46967;48.876;2.136;2023-05-22T09:29:52;101535.28;;;45.95;12.48
61086;BME280;46967;48.876;2.136;2023-05-22T09:32:18;101530.22;;;46.19;12.20
61086;BME280;46967;48.876;2.136;2023-05-22T09:34:45;101534.84;;;46.13;12.28
61086;BME280;46967;48.876;2.136;2023-05-22T09:37:11;101530.91;;;45.93;12.71
61086;BME280;46967;48.876;2.136;2023-05-22T09:39:38;101530.88;;;45.83;12.38
61086;BME280;46967;48.876;2.136;2023-05-22T09:42:08;101540.97;;;45.40;12.84
61086;BME280;46967;48.876;2.136;2023-05-22T09:44:35;101532.09;;;45.65;12.86
61086;BME280;46967;48.876;2.136;2023-05-22T09:47:02;101533.72;;;46.14;12.50
61086;BME280;46967;48.876;2.136;2023-05-22T09:49:27;101534.69;;;46.40;12.14
61086;BME280;46967;48.876;2.136;2023-05-22T09:51:53;101540.97;;;46.36;12.46
61086;BME280;46967;48.876;2.136;2023-05-22T09:54:19;101540.88;;;45.35;12.81
61086;BME280;46967;48.876;2.136;2023-05-22T09:56:49;101539.72;;;46.06;12.56
61086;BME280;46967;48.876;2.136;2023-05-22T09:59:18;101530.94;;;46.72;12.18
61086;BME280;46967;48.876;2.136;2023-05-22T10:01:45;101531.47;;;46.69;12.47
61086;BME280;46967;48.876;2.136;2023-05-22T10:04:12;101537.44;;;46.40;12.32
61086;BME280;46967;48.876;2.136;2023-05-22T10:06:41;101544.66;;;46.67;12.21
61086;BME280;46967;48.876;2.136;2023-05-22T10:09:08;101540.81;;;46.89;11.76
61086;BME280;46967;48.876;2.136;2023-05-22T10:11:36;101533.75;;;47.13;11.87
61086;BME280;46967;48.876;2.136;2023-05-22T10:14:02;101524.97;;;47.11;11.71
61086;BME280;46967;48.876;2.136;2023-05-22T10:16:29;101523.03;;;47.32;11.48
61086;BME280;46967;48.876;2.136;2023-05-22T10:18:55;101520.81;;;47.45;11.70
61086;BME280;46967;48.876;2.136;2023-05-22T10:21:21;101517.47;;;47.63;11.68
61086;BME280;46967;48.876;2.136;2023-05-22T10:23:47;101515.81;;;47.83;11.38
61086;BME280;46967;48.876;2.136;2023-05-22T10:26:13;101509.38;;;48.03;11.34
61086;BME280;46967;48.876;2.136;2023-05-22T10:29:09;101517.03;;;48.21;11.02
61086;BME280;46967;48.876;2.136;2023-05-22T10:31:45;101524.34;;;48.36;11.38
61086;BME280;46967;48.876;2.136;2023-05-22T10:34:19;101523.59;;;46.15;12.41
61086;BME280;46967;48.876;2.136;2023-05-22T10:36:57;101519.97;;;46.77;12.19
61086;BME280;46967;48.876;2.136;2023-05-22T10:39:36;101520.81;;;47.14;12.03
61086;BME280;46967;48.876;2.136;2023-05-22T10:42:04;101510.53;;;47.92;11.72
61086;BME280;46967;48.876;2.136;2023-05-22T10:44:32;101508.72;;;47.25;12.20
61086;BME280;46967;48.876;2.136;2023-05-22T10:46:57;101511.47;;;47.51;11.63
61086;BME280;46967;48.876;2.136;2023-05-22T10:49:34;101502.09;;;47.72;11.80
61086;BME280;46967;48.876;2.136;2023-05-22T10:52:01;101503.22;;;47.56;11.60
61086;BME280;46967;48.876;2.136;2023-05-22T10:54:44;101501.13;;;48.13;12.05
61086;BME280;46967;48.876;2.136;2023-05-22T10:57:14;101497.56;;;48.07;11.97
61086;BME280;46967;48.876;2.136;2023-05-22T10:59:46;101492.72;;;48.44;11.17
61086;BME280;46967;48.876;2.136;2023-05-22T11:02:24;101494.69;;;48.28;11.13
61086;BME280;46967;48.876;2.136;2023-05-22T11:05:31;101491.38;;;48.81;11.47
61086;BME280;46967;48.876;2.136;2023-05-22T11:08:33;101484.22;;;49.39;10.98
61086;BME280;46967;48.876;2.136;2023-05-22T11:10:56;101489.31;;;48.97;10.97
61086;BME280;46967;48.876;2.136;2023-05-22T11:13:25;101491.56;;;47.90;11.60
61086;BME280;46967;48.876;2.136;2023-05-22T11:15:53;101486.53;;;48.18;11.29
61086;BME280;46967;48.876;2.136;2023-05-22T11:18:19;101483.72;;;48.68;11.40
61086;BME280;46967;48.876;2.136;2023-05-22T11:20:45;101483.25;;;48.60;11.39
61086;BME280;46967;48.876;2.136;2023-05-22T11:23:11;101479.72;;;49.24;10.91
61086;BME280;46967;48.876;2.136;2023-05-22T11:25:37;101478.47;;;49.83;11.06
61086;BME280;46967;48.876;2.136;2023-05-22T11:28:05;101479.13;;;49.27;11.05
61086;BME280;46967;48.876;2.136;2023-05-22T11:30:31;101481.97;;;48.87;11.20
61086;BME280;46967;48.876;2.136;2023-05-22T11:32:58;101479.44;;;47.96;11.53
61086;BME280;46967;48.876;2.136;2023-05-22T11:35:23;101484.53;;;48.73;11.75
61086;BME280;46967;48.876;2.136;2023-05-22T11:37:51;101476.84;;;49.05;10.98
61086;BME280;46967;48.876;2.136;2023-05-22T11:40:25;101474.75;;;48.91;10.68
61086;BME280;46967;48.876;2.136;2023-05-22T11:42:51;101478.00;;;49.28;11.02
61086;BME280;46967;48.876;2.136;2023-05-22T11:45:17;101481.69;;;48.44;11.05
61086;BME280;46967;48.876;2.136;2023-05-22T11:47:43;101484.72;;;48.42;11.66
61086;BME280;46967;48.876;2.136;2023-05-22T11:50:10;101481.16;;;48.42;11.18
61086;BME280;46967;48.876;2.136;2023-05-22T11:52:36;101481.00;;;49.02;11.09
61086;BME280;46967;48.876;2.136;2023-05-22T11:55:06;101467.22;;;49.31;10.76
61086;BME280;46967;48.876;2.136;2023-05-22T11:57:35;101472.97;;;48.27;11.89
61086;BME280;46967;48.876;2.136;2023-05-22T12:00:04;101476.13;;;49.23;11.40
61086;BME280;46967;48.876;2.136;2023-05-22T12:02:30;101473.84;;;49.30;10.90
61086;BME280;46967;48.876;2.136;2023-05-22T12:04:56;101467.84;;;49.23;11.08
61086;BME280;46967;48.876;2.136;2023-05-22T12:07:23;101478.44;;;48.37;11.22
61086;BME280;46967;48.876;2.136;2023-05-22T12:09:50;101470.44;;;48.40;11.42
61086;BME280;46967;48.876;2.136;2023-05-22T12:12:16;101472.38;;;48.74;11.15
61086;BME280;46967;48.876;2.136;2023-05-22T12:14:44;101466.59;;;49.10;10.95
61086;BME280;46967;48.876;2.136;2023-05-22T12:17:15;101468.88;;;48.69;11.08
61086;BME280;46967;48.876;2.136;2023-05-22T12:19:41;101465.09;;;49.23;10.73
61086;BME280;46967;48.876;2.136;2023-05-22T12:22:08;101467.19;;;49.37;10.76
61086;BME280;46967;48.876;2.136;2023-05-22T12:24:41;101463.31;;;49.08;10.95
61086;BME280;46967;48.876;2.136;2023-05-22T12:27:10;101464.28;;;47.33;11.55
61086;BME280;46967;48.876;2.136;2023-05-22T12:29:36;101466.97;;;47.44;11.55
61086;BME280;46967;48.876;2.136;2023-05-22T12:32:04;101469.88;;;49.42;10.61
61086;BME280;46967;48.876;2.136;2023-05-22T12:34:33;101469.44;;;49.59;10.69
61086;BME280;46967;48.876;2.136;2023-05-22T12:36:59;101478.78;;;49.34;10.74
61086;BME280;46967;48.876;2.136;2023-05-22T12:39:24;101472.91;;;48.82;10.74
61086;BME280;46967;48.876;2.136;2023-05-22T12:41:50;101470.16;;;49.11;11.07
61086;BME280;46967;48.876;2.136;2023-05-22T12:44:15;101471.13;;;48.61;10.73
61086;BME280;46967;48.876;2.136;2023-05-22T12:46:41;101465.97;;;49.19;10.54
61086;BME280;46967;48.876;2.136;2023-05-22T12:49:07;101468.84;;;49.62;10.55
61086;BME280;46967;48.876;2.136;2023-05-22T12:51:33;101471.13;;;49.55;10.61
61086;BME280;46967;48.876;2.136;2023-05-22T12:53:59;101469.63;;;49.09;10.85
61086;BME280;46967;48.876;2.136;2023-05-22T12:56:25;101472.03;;;47.92;11.72
61086;BME280;46967;48.876;2.136;2023-05-22T12:58:51;101469.69;;;47.49;11.70
61086;BME280;46967;48.876;2.136;2023-05-22T13:01:16;101469.94;;;47.63;11.97
61086;BME280;46967;48.876;2.136;2023-05-22T13:03:42;101467.22;;;48.68;11.44
61086;BME280;46967;48.876;2.136;2023-05-22T13:06:08;101468.75;;;47.89;11.57